Time;durP1;ratioP1;P1;durP2;ratioP2;P2;SDS_P1;SDS_P2;PMS_P1;PMS_P2;Temp;Humidity;BMP_temperature;BMP_pressure;BME280_temperature;BME280_humidity;BME280_pressure;Samples;Min_cycle;Max_cycle;Signal;HPM_P1;HPM_P2
2021/05/08 00:01:36;;;;;;;4.33;3.83;;;;;;;;;;5025695;28;21225;-78
2021/05/08 00:04:41;;;;;;;6.77;3.43;;;;;;;;;;5015710;28;20730;-78
2021/05/08 00:07:45;;;;;;;5.53;3.83;;;;;;;;;;5026239;28;20540;-78
2021/05/08 00:10:49;;;;;;;5.53;3.87;;;;;;;;;;5003272;28;20616;-78
2021/05/08 00:13:53;;;;;;;5.87;3.70;;;;;;;;;;5025891;28;21066;-77
2021/05/08 00:16:57;;;;;;;4.40;3.87;;;;;;;;;;5025789;28;20540;-77
2021/05/08 00:20:03;;;;;;;4.00;3.60;;;;;;;;;;5015499;28;20541;-77
2021/05/08 00:23:07;;;;;;;4.40;3.73;;;;;;;;;;5014617;28;20877;-77
2021/05/08 00:26:11;;;;;;;4.20;3.50;;;;;;;;;;5002994;28;20588;-77
2021/05/08 00:29:15;;;;;;;4.20;3.70;;;;;;;;;;5015058;28;20545;-78
2021/05/08 00:32:20;;;;;;;4.80;3.47;;;;;;;;;;5003183;28;20623;-78
2021/05/08 00:35:24;;;;;;;5.80;4.03;;;;;;;;;;5014183;28;20545;-77
2021/05/08 00:38:29;;;;;;;4.00;3.30;;;;;;;;;;5014303;28;20592;-77
2021/05/08 00:41:33;;;;;;;4.90;3.30;;;;;;;;;;5025244;28;20632;-77
2021/05/08 00:44:40;;;;;;;6.03;3.90;;;;;;;;;;5014756;28;20548;-78
2021/05/08 00:47:48;;;;;;;5.33;3.53;;;;;;;;;;5014714;28;20865;-77
2021/05/08 00:50:52;;;;;;;5.63;3.93;;;;;;;;;;5025121;28;20972;-77
2021/05/08 00:53:57;;;;;;;3.70;3.40;;;;;;;;;;5025077;28;20540;-77
2021/05/08 00:57:02;;;;;;;3.97;3.53;;;;;;;;;;5024759;28;20604;-77
2021/05/08 01:00:08;;;;;;;4.60;3.83;;;;;;;;;;5013411;28;20599;-77
2021/05/08 01:03:14;;;;;;;5.63;4.23;;;;;;;;;;5002103;28;20537;-77
2021/05/08 01:06:19;;;;;;;5.63;3.83;;;;;;;;;;5014324;28;20592;-77
2021/05/08 01:09:24;;;;;;;5.27;4.33;;;;;;;;;;5024435;28;20944;-78
2021/05/08 01:12:30;;;;;;;5.47;4.00;;;;;;;;;;5013121;28;21186;-77
2021/05/08 01:15:35;;;;;;;4.50;3.73;;;;;;;;;;5014486;28;20532;-77
2021/05/08 01:18:40;;;;;;;5.00;4.27;;;;;;;;;;5013317;28;20596;-78
2021/05/08 01:21:45;;;;;;;4.27;3.77;;;;;;;;;;5013999;28;20627;-78
2021/05/08 01:24:49;;;;;;;6.67;4.20;;;;;;;;;;5014037;28;20596;-77
2021/05/08 01:27:57;;;;;;;5.00;4.17;;;;;;;;;;5001978;28;20533;-78
2021/05/08 01:31:02;;;;;;;5.37;4.40;;;;;;;;;;5012958;28;20620;-78
2021/05/08 01:34:07;;;;;;;6.40;4.37;;;;;;;;;;5012853;28;20592;-77
2021/05/08 01:37:12;;;;;;;5.93;4.40;;;;;;;;;;5013082;28;21155;-78
2021/05/08 01:40:16;;;;;;;6.90;4.00;;;;;;;;;;5013100;28;20877;-77
2021/05/08 01:43:22;;;;;;;8.03;4.13;;;;;;;;;;5013231;28;20540;-77
2021/05/08 01:47:04;;;;;;;5.23;4.10;;;;;;;;;;5013468;28;20588;-78
2021/05/08 01:59:45;;;;;;;5.23;4.73;;;;;;;;;;5013867;28;20882;-77
2021/05/08 02:02:52;;;;;;;5.27;4.23;;;;;;;;;;5012451;28;21154;-77
2021/05/08 02:06:02;;;;;;;5.10;4.30;;;;;;;;;;5012901;28;20988;-77
2021/05/08 02:09:32;;;;;;;5.30;3.77;;;;;;;;;;5013273;28;20545;-77
2021/05/08 02:12:39;;;;;;;5.33;4.20;;;;;;;;;;5023358;28;20620;-77
2021/05/08 02:15:45;;;;;;;4.63;3.90;;;;;;;;;;5013468;28;21175;-77
2021/05/08 02:18:50;;;;;;;5.27;4.10;;;;;;;;;;5024077;28;20941;-77
2021/05/08 02:21:55;;;;;;;5.30;4.00;;;;;;;;;;5013427;28;20628;-78
2021/05/08 02:25:00;;;;;;;5.53;4.10;;;;;;;;;;5012293;28;21158;-77
2021/05/08 02:28:05;;;;;;;5.63;4.30;;;;;;;;;;5023887;28;20537;-77
2021/05/08 02:31:10;;;;;;;5.90;4.40;;;;;;;;;;5012657;28;20616;-77
2021/05/08 02:34:15;;;;;;;5.10;4.20;;;;;;;;;;5012701;28;21154;-78
2021/05/08 02:37:20;;;;;;;5.03;4.37;;;;;;;;;;5013229;28;20588;-77
2021/05/08 02:40:30;;;;;;;5.33;4.30;;;;;;;;;;5025012;28;21084;-77
2021/05/08 02:43:36;;;;;;;5.83;4.33;;;;;;;;;;4983639;28;20644;-74
2021/05/08 02:46:47;;;;;;;7.70;4.83;;;;;;;;;;4997196;28;20597;-76
2021/05/08 02:49:56;;;;;;;7.37;4.93;;;;;;;;;;4984937;28;20612;-77
2021/05/08 02:53:00;;;;;;;5.93;4.43;;;;;;;;;;4996477;28;20550;-77
2021/05/08 02:56:07;;;;;;;7.23;4.90;;;;;;;;;;4996423;28;20538;-77
2021/05/08 02:59:17;;;;;;;5.73;4.67;;;;;;;;;;4996160;28;20596;-77
2021/05/08 03:02:21;;;;;;;5.67;4.40;;;;;;;;;;4976494;28;21171;-77
2021/05/08 03:05:25;;;;;;;6.03;4.70;;;;;;;;;;4977602;28;20542;-77
2021/05/08 03:08:33;;;;;;;5.00;4.37;;;;;;;;;;4976669;28;20583;-77
2021/05/08 03:11:42;;;;;;;6.47;4.57;;;;;;;;;;4976321;28;20634;-76
2021/05/08 03:14:47;;;;;;;7.23;5.20;;;;;;;;;;4976342;28;20598;-77
2021/05/08 03:17:51;;;;;;;6.13;4.97;;;;;;;;;;4976353;28;20899;-77
2021/05/08 03:20:55;;;;;;;5.80;4.63;;;;;;;;;;4976666;28;20621;-77
2021/05/08 03:24:00;;;;;;;10.97;5.00;;;;;;;;;;4995939;28;20893;-77
2021/05/08 03:27:04;;;;;;;6.90;5.17;;;;;;;;;;4996816;28;20593;-77
2021/05/08 03:30:10;;;;;;;7.20;4.80;;;;;;;;;;4985158;28;20549;-77
2021/05/08 03:33:14;;;;;;;6.00;4.97;;;;;;;;;;4996858;28;20542;-77
2021/05/08 03:36:19;;;;;;;5.67;4.67;;;;;;;;;;4995699;28;20542;-77
2021/05/08 03:39:23;;;;;;;6.93;4.50;;;;;;;;;;4996699;28;20546;-77
2021/05/08 03:42:27;;;;;;;6.67;4.97;;;;;;;;;;4996216;28;20633;-77
2021/05/08 03:45:32;;;;;;;5.67;4.40;;;;;;;;;;4995497;28;21155;-77
2021/05/08 03:48:36;;;;;;;7.90;5.00;;;;;;;;;;4996264;28;20534;-77
2021/05/08 03:51:40;;;;;;;6.40;4.70;;;;;;;;;;4984241;28;20616;-77
2021/05/08 03:54:44;;;;;;;6.20;4.57;;;;;;;;;;4995881;28;20554;-77
2021/05/08 03:57:48;;;;;;;10.93;4.73;;;;;;;;;;4994783;28;20952;-77
2021/05/08 04:00:53;;;;;;;5.53;4.37;;;;;;;;;;4982462;28;20637;-77
2021/05/08 04:03:57;;;;;;;7.07;4.87;;;;;;;;;;4976826;28;20863;-77
2021/05/08 04:07:01;;;;;;;7.50;5.03;;;;;;;;;;4975045;28;20629;-77
2021/05/08 04:10:05;;;;;;;7.87;5.50;;;;;;;;;;4995061;28;20553;-77
2021/05/08 04:13:10;;;;;;;15.37;5.50;;;;;;;;;;4995483;28;20600;-77
2021/05/08 04:16:14;;;;;;;18.17;6.37;;;;;;;;;;4995693;28;20550;-77
2021/05/08 04:19:19;;;;;;;10.63;5.80;;;;;;;;;;4995423;28;20545;-77
2021/05/08 04:22:23;;;;;;;7.77;5.50;;;;;;;;;;4995601;28;21198;-77
2021/05/08 04:25:27;;;;;;;8.53;5.03;;;;;;;;;;4994930;28;20589;-77
2021/05/08 04:28:31;;;;;;;7.30;5.50;;;;;;;;;;4995501;28;20530;-77
2021/05/08 04:31:35;;;;;;;7.20;4.87;;;;;;;;;;4994475;28;20961;-77
2021/05/08 04:34:40;;;;;;;18.33;6.77;;;;;;;;;;4995141;28;20600;-76
2021/05/08 04:37:44;;;;;;;8.97;6.10;;;;;;;;;;4994278;28;21147;-77
2021/05/08 04:40:52;;;;;;;11.40;5.33;;;;;;;;;;4995105;28;20624;-77
2021/05/08 04:43:56;;;;;;;8.20;4.80;;;;;;;;;;4995228;28;20542;-77
2021/05/08 04:47:01;;;;;;;7.40;4.53;;;;;;;;;;4994015;28;20597;-77
2021/05/08 04:50:05;;;;;;;8.07;5.30;;;;;;;;;;4995122;28;20546;-76
2021/05/08 04:53:09;;;;;;;9.73;5.93;;;;;;;;;;4978012;28;20610;-77
2021/05/08 04:56:14;;;;;;;8.40;5.47;;;;;;;;;;4975425;28;20554;-76
2021/05/08 04:59:18;;;;;;;14.17;6.00;;;;;;;;;;4975785;28;20539;-77
2021/05/08 05:02:22;;;;;;;7.50;5.33;;;;;;;;;;4975096;28;20618;-77
2021/05/08 05:05:27;;;;;;;17.30;9.40;;;;;;;;;;4973652;28;20543;-77
2021/05/08 05:08:31;;;;;;;13.10;7.00;;;;;;;;;;4974233;28;20939;-77
2021/05/08 05:11:35;;;;;;;11.33;6.63;;;;;;;;;;4975528;28;21204;-77
2021/05/08 05:14:40;;;;;;;9.50;6.20;;;;;;;;;;4963994;28;21071;-74
2021/05/08 05:17:46;;;;;;;8.53;5.87;;;;;;;;;;4974936;28;20551;-75
2021/05/08 05:20:50;;;;;;;10.57;5.40;;;;;;;;;;4975075;28;20622;-72
2021/05/08 05:23:54;;;;;;;7.20;4.80;;;;;;;;;;4975238;28;20546;-73
2021/05/08 05:26:58;;;;;;;7.57;5.27;;;;;;;;;;4963107;28;21152;-72
2021/05/08 05:30:03;;;;;;;7.97;5.10;;;;;;;;;;4963415;28;20538;-72
2021/05/08 05:33:08;;;;;;;9.17;5.17;;;;;;;;;;4963032;28;20558;-72
2021/05/08 05:36:12;;;;;;;10.40;5.10;;;;;;;;;;4972484;28;20609;-73
2021/05/08 05:39:16;;;;;;;8.20;4.67;;;;;;;;;;4993963;28;20592;-72
2021/05/08 05:42:21;;;;;;;7.30;4.93;;;;;;;;;;4993794;28;20655;-72
2021/05/08 05:45:25;;;;;;;6.53;4.93;;;;;;;;;;4994146;28;20593;-72
2021/05/08 05:48:29;;;;;;;6.53;4.90;;;;;;;;;;4994060;28;20589;-72
2021/05/08 05:51:33;;;;;;;10.10;5.77;;;;;;;;;;4994254;28;20629;-74
2021/05/08 05:54:38;;;;;;;12.80;4.97;;;;;;;;;;4994360;28;21080;-73
2021/05/08 05:57:42;;;;;;;7.10;4.60;;;;;;;;;;4994303;28;20545;-73
2021/05/08 06:00:46;;;;;;;8.23;5.00;;;;;;;;;;4993123;28;20625;-74
2021/05/08 06:03:51;;;;;;;5.93;4.80;;;;;;;;;;4993944;28;21166;-73
2021/05/08 06:06:55;;;;;;;6.07;4.87;;;;;;;;;;4993336;28;20593;-73
2021/05/08 06:09:59;;;;;;;5.80;4.07;;;;;;;;;;4986508;28;20570;-73
2021/05/08 06:13:03;;;;;;;4.03;3.60;;;;;;;;;;4974492;28;20187;-73
2021/05/08 06:16:08;;;;;;;4.73;3.97;;;;;;;;;;4976138;28;20183;-73
2021/05/08 06:19:12;;;;;;;4.40;3.37;;;;;;;;;;4978470;28;20174;-73
2021/05/08 06:22:17;;;;;;;6.47;3.47;;;;;;;;;;4978374;28;20217;-73
2021/05/08 06:25:21;;;;;;;4.10;3.33;;;;;;;;;;4978318;28;20202;-73
2021/05/08 06:28:25;;;;;;;4.50;3.30;;;;;;;;;;4978507;28;20669;-73
2021/05/08 06:31:29;;;;;;;6.50;2.97;;;;;;;;;;4978255;28;20222;-73
2021/05/08 06:34:33;;;;;;;5.23;2.97;;;;;;;;;;4978227;28;20519;-73
2021/05/08 06:37:38;;;;;;;3.80;2.80;;;;;;;;;;4978426;28;20174;-73
2021/05/08 06:40:42;;;;;;;3.90;2.70;;;;;;;;;;4977610;28;20226;-73
2021/05/08 06:43:46;;;;;;;3.00;2.70;;;;;;;;;;4977273;28;20183;-73
2021/05/08 06:46:57;;;;;;;4.97;2.70;;;;;;;;;;4977593;28;20681;-73
2021/05/08 06:50:02;;;;;;;3.67;2.70;;;;;;;;;;4977914;28;20186;-73
2021/05/08 06:53:06;;;;;;;3.77;2.90;;;;;;;;;;4977852;28;20178;-72
2021/05/08 06:56:10;;;;;;;4.23;2.70;;;;;;;;;;4976985;28;20515;-74
2021/05/08 06:59:14;;;;;;;3.77;2.63;;;;;;;;;;4977783;28;20178;-74
2021/05/08 07:02:19;;;;;;;3.23;2.50;;;;;;;;;;4977296;28;20222;-74
2021/05/08 07:05:23;;;;;;;3.10;2.40;;;;;;;;;;4977659;28;20182;-73
2021/05/08 07:08:27;;;;;;;3.83;2.70;;;;;;;;;;4978044;28;20202;-73
2021/05/08 07:11:31;;;;;;;4.57;2.57;;;;;;;;;;4977445;28;20562;-74
2021/05/08 07:14:35;;;;;;;2.90;2.33;;;;;;;;;;4976670;28;20186;-74
2021/05/08 07:17:39;;;;;;;3.53;2.30;;;;;;;;;;4977441;28;20179;-74
2021/05/08 07:20:44;;;;;;;3.03;2.30;;;;;;;;;;4977205;28;20284;-74
2021/05/08 07:23:48;;;;;;;2.87;2.50;;;;;;;;;;4976527;28;20527;-73
2021/05/08 07:26:52;;;;;;;4.47;2.20;;;;;;;;;;4977246;28;20183;-73
2021/05/08 07:29:57;;;;;;;5.73;2.10;;;;;;;;;;4977230;28;20174;-73
2021/05/08 07:33:01;;;;;;;4.13;1.80;;;;;;;;;;4977305;28;20187;-73
2021/05/08 07:36:06;;;;;;;3.63;2.00;;;;;;;;;;4977347;28;20179;-74
2021/05/08 07:39:10;;;;;;;6.07;2.47;;;;;;;;;;4976990;28;20511;-74
2021/05/08 07:42:14;;;;;;;6.30;1.60;;;;;;;;;;4976527;28;20230;-74
2021/05/08 07:45:18;;;;;;;2.30;1.60;;;;;;;;;;4976858;28;20225;-74
2021/05/08 07:48:22;;;;;;;2.57;1.73;;;;;;;;;;4976539;28;20543;-74
2021/05/08 07:51:26;;;;;;;3.30;1.63;;;;;;;;;;4975855;28;20222;-74
2021/05/08 07:54:31;;;;;;;1.97;1.77;;;;;;;;;;4972020;28;20182;-74
2021/05/08 07:57:37;;;;;;;2.47;1.70;;;;;;;;;;4961563;28;20171;-74
2021/05/08 08:00:41;;;;;;;2.50;1.77;;;;;;;;;;4973164;28;20198;-74
2021/05/08 08:03:45;;;;;;;2.33;1.83;;;;;;;;;;4972303;28;20186;-74
2021/05/08 08:06:50;;;;;;;2.40;1.67;;;;;;;;;;4973180;28;20183;-75
2021/05/08 08:09:55;;;;;;;2.63;1.93;;;;;;;;;;4972446;28;20194;-75
2021/05/08 08:12:59;;;;;;;2.37;1.33;;;;;;;;;;4972970;28;20203;-75
2021/05/08 08:16:04;;;;;;;3.43;1.90;;;;;;;;;;4973188;28;20515;-75
2021/05/08 08:19:08;;;;;;;1.93;1.50;;;;;;;;;;4973396;28;20195;-75
2021/05/08 08:22:16;;;;;;;3.40;1.50;;;;;;;;;;4972622;28;20214;-75
2021/05/08 08:25:20;;;;;;;3.53;1.53;;;;;;;;;;4960952;28;20183;-75
2021/05/08 08:28:24;;;;;;;2.10;1.30;;;;;;;;;;4971474;28;20215;-75
2021/05/08 08:31:29;;;;;;;3.03;1.63;;;;;;;;;;4972772;28;20570;-75
2021/05/08 08:34:33;;;;;;;5.60;1.93;;;;;;;;;;4972424;28;20187;-75
2021/05/08 08:37:37;;;;;;;3.33;1.90;;;;;;;;;;4960763;28;20179;-75
2021/05/08 08:40:46;;;;;;;3.20;2.00;;;;;;;;;;4970931;28;20202;-75
2021/05/08 08:43:50;;;;;;;2.67;1.57;;;;;;;;;;4972364;28;20191;-74
2021/05/08 08:46:55;;;;;;;5.53;1.80;;;;;;;;;;4972183;28;20199;-74
2021/05/08 08:50:20;;;;;;;4.13;2.00;;;;;;;;;;4972231;28;20187;-75
2021/05/08 08:53:24;;;;;;;4.80;1.80;;;;;;;;;;4971950;28;20184;-74
2021/05/08 08:56:40;;;;;;;2.40;1.33;;;;;;;;;;5012040;23;20299;-75
2021/05/08 08:59:46;;;;;;;2.27;1.50;;;;;;;;;;5013943;28;20186;-75
2021/05/08 09:02:51;;;;;;;2.50;1.70;;;;;;;;;;5013075;28;20201;-72
2021/05/08 09:05:55;;;;;;;7.00;1.60;;;;;;;;;;5002648;28;20186;-72
2021/05/08 09:09:00;;;;;;;3.03;1.60;;;;;;;;;;5014658;28;20213;-74
2021/05/08 09:12:11;;;;;;;2.00;1.60;;;;;;;;;;5014082;28;20568;-74
2021/05/08 09:15:31;;;;;;;3.13;1.77;;;;;;;;;;5014209;28;20537;-75
2021/05/08 09:18:38;;;;;;;3.40;1.70;;;;;;;;;;5014212;28;20193;-75
2021/05/08 09:21:42;;;;;;;1.87;1.40;;;;;;;;;;5014354;28;20683;-74
2021/05/08 09:25:07;;;;;;;2.53;1.73;;;;;;;;;;5013889;28;20173;-74
2021/05/08 09:28:11;;;;;;;3.77;1.80;;;;;;;;;;5013412;28;20657;-74
2021/05/08 09:31:15;;;;;;;2.43;1.70;;;;;;;;;;4998023;28;20217;-75
2021/05/08 09:34:20;;;;;;;3.30;1.73;;;;;;;;;;5010711;28;20181;-74
2021/05/08 09:37:24;;;;;;;3.60;2.10;;;;;;;;;;5010331;28;20177;-74
2021/05/08 09:40:28;;;;;;;4.07;1.70;;;;;;;;;;4997995;28;20174;-75
2021/05/08 09:43:33;;;;;;;20.37;2.30;;;;;;;;;;5009787;28;20181;-74
2021/05/08 09:46:37;;;;;;;3.33;1.70;;;;;;;;;;5010192;28;20192;-74
2021/05/08 09:49:56;;;;;;;2.77;1.50;;;;;;;;;;5009129;28;20215;-75
2021/05/08 09:53:00;;;;;;;2.90;1.73;;;;;;;;;;5009024;28;20175;-75
2021/05/08 09:56:05;;;;;;;2.90;1.70;;;;;;;;;;5009495;28;20667;-74
2021/05/08 09:59:38;;;;;;;2.70;2.00;;;;;;;;;;5012660;28;20172;-74
2021/05/08 10:02:43;;;;;;;3.03;1.63;;;;;;;;;;5013301;28;20711;-74
2021/05/08 10:05:56;;;;;;;2.87;1.50;;;;;;;;;;5013673;28;20175;-74
2021/05/08 10:09:01;;;;;;;3.13;1.67;;;;;;;;;;5013702;28;20209;-74
2021/05/08 10:12:14;;;;;;;2.20;1.60;;;;;;;;;;5013508;28;20218;-75
2021/05/08 10:15:18;;;;;;;3.20;1.67;;;;;;;;;;5012664;28;20197;-74
2021/05/08 10:18:23;;;;;;;2.30;1.80;;;;;;;;;;5013537;28;20173;-74
2021/05/08 10:21:27;;;;;;;1.73;1.47;;;;;;;;;;5013120;28;20700;-74
2021/05/08 10:24:32;;;;;;;4.00;1.77;;;;;;;;;;5013432;28;20633;-74
2021/05/08 10:27:36;;;;;;;2.13;1.43;;;;;;;;;;5013991;28;20181;-74
2021/05/08 10:30:42;;;;;;;4.73;1.70;;;;;;;;;;5012778;28;20170;-74
2021/05/08 10:33:46;;;;;;;1.77;1.50;;;;;;;;;;5012610;28;20182;-75
2021/05/08 10:36:51;;;;;;;2.07;1.60;;;;;;;;;;5001546;28;20182;-74
2021/05/08 10:40:08;;;;;;;2.03;1.30;;;;;;;;;;5012958;28;20181;-75
2021/05/08 10:43:41;;;;;;;2.47;1.60;;;;;;;;;;5001499;28;20186;-74
2021/05/08 10:46:52;;;;;;;1.80;1.30;;;;;;;;;;5013154;28;20186;-74
2021/05/08 10:50:37;;;;;;;5.37;1.50;;;;;;;;;;5013166;28;20207;-74
2021/05/08 10:53:43;;;;;;;1.57;1.40;;;;;;;;;;5013447;28;20194;-74
2021/05/08 10:56:48;;;;;;;5.37;1.70;;;;;;;;;;5010826;28;20688;-74
2021/05/08 11:00:04;;;;;;;1.83;1.63;;;;;;;;;;5012785;28;20632;-74
2021/05/08 11:03:08;;;;;;;2.87;1.70;;;;;;;;;;4996942;28;20653;-74
2021/05/08 11:06:17;;;;;;;3.37;1.67;;;;;;;;;;5009924;28;20193;-74
2021/05/08 11:09:29;;;;;;;2.33;1.40;;;;;;;;;;5016622;28;20217;-75
2021/05/08 11:13:14;;;;;;;1.83;1.40;;;;;;;;;;5014547;28;20213;-74
2021/05/08 11:16:19;;;;;;;3.50;1.60;;;;;;;;;;5016487;28;20175;-74
2021/05/08 11:19:25;;;;;;;4.20;1.50;;;;;;;;;;5004415;28;20186;-73
2021/05/08 11:22:32;;;;;;;5.73;1.50;;;;;;;;;;5010274;28;20224;-73
2021/05/08 11:25:37;;;;;;;2.83;1.10;;;;;;;;;;4999992;28;20286;-73
2021/05/08 11:28:58;;;;;;;1.90;1.10;;;;;;;;;;5015120;28;20221;-74
2021/05/08 11:32:04;;;;;;;3.27;1.43;;;;;;;;;;5013059;28;20228;-74
2021/05/08 11:35:08;;;;;;;4.33;1.60;;;;;;;;;;5001947;28;20203;-74
2021/05/08 11:38:19;;;;;;;1.87;1.20;;;;;;;;;;5007869;28;20205;-74
2021/05/08 11:41:24;;;;;;;2.57;1.40;;;;;;;;;;5010093;28;20217;-74
2021/05/08 11:44:32;;;;;;;2.90;1.30;;;;;;;;;;4998380;28;20177;-74
2021/05/08 11:47:36;;;;;;;3.07;1.30;;;;;;;;;;5015455;28;20188;-74
2021/05/08 11:50:42;;;;;;;1.40;1.30;;;;;;;;;;5008158;28;20221;-74
2021/05/08 11:54:08;;;;;;;4.03;1.57;;;;;;;;;;4991328;28;20195;-75
2021/05/08 11:57:23;;;;;;;2.13;1.37;;;;;;;;;;5014056;28;20201;-75
2021/05/08 12:00:31;;;;;;;5.13;1.83;;;;;;;;;;5008980;28;20183;-74
2021/05/08 12:03:35;;;;;;;1.60;1.20;;;;;;;;;;5001452;28;20192;-74
2021/05/08 12:06:39;;;;;;;3.60;1.40;;;;;;;;;;4985101;28;20186;-75
2021/05/08 12:09:43;;;;;;;2.43;2.17;;;;;;;;;;4986642;28;20702;-74
2021/05/08 12:12:52;;;;;;;2.93;1.53;;;;;;;;;;5007334;28;20223;-74
2021/05/08 12:16:00;;;;;;;1.67;1.57;;;;;;;;;;5008986;28;20194;-75
2021/05/08 12:19:05;;;;;;;5.53;1.80;;;;;;;;;;5010385;28;20659;-74
2021/05/08 12:22:10;;;;;;;2.70;1.63;;;;;;;;;;5003720;28;20224;-74
2021/05/08 12:25:20;;;;;;;3.20;1.90;;;;;;;;;;4996847;28;20580;-75
2021/05/08 12:28:25;;;;;;;5.67;2.37;;;;;;;;;;4995779;28;20667;-75
2021/05/08 12:31:33;;;;;;;37.47;8.37;;;;;;;;;;5011561;28;20221;-74
2021/05/08 12:34:37;;;;;;;10.73;5.47;;;;;;;;;;5011963;28;20675;-75
2021/05/08 12:37:42;;;;;;;30.43;5.80;;;;;;;;;;5009544;28;20189;-74
2021/05/08 12:40:47;;;;;;;2.00;1.43;;;;;;;;;;4995495;28;20220;-75
2021/05/08 12:44:00;;;;;;;9.63;4.50;;;;;;;;;;4999128;28;20187;-75
2021/05/08 12:47:18;;;;;;;3.10;2.38;;;;;;;;;;5013572;28;20193;-75
2021/05/08 12:50:31;;;;;;;3.03;1.40;;;;;;;;;;4983438;28;20218;-75
2021/05/08 12:53:35;;;;;;;4.93;1.80;;;;;;;;;;4986148;28;20541;-75
2021/05/08 12:56:41;;;;;;;2.65;2.20;;;;;;;;;;5001874;28;20212;-75
2021/05/08 12:59:59;;;;;;;4.20;1.50;;;;;;;;;;4984129;28;20182;-75
2021/05/08 13:03:18;;;;;;;2.30;1.30;;;;;;;;;;4982934;28;20186;-75
2021/05/08 13:06:25;;;;;;;3.95;1.50;;;;;;;;;;4982975;28;20195;-75
2021/05/08 13:09:29;;;;;;;2.95;1.77;;;;;;;;;;4995107;28;20541;-75
2021/05/08 13:12:33;;;;;;;3.45;1.58;;;;;;;;;;5004984;28;20219;-76
2021/05/08 13:15:37;;;;;;;1.45;1.20;;;;;;;;;;5011371;28;20190;-75
2021/05/08 13:18:44;;;;;;;2.20;1.20;;;;;;;;;;4993702;28;20182;-75
2021/05/08 13:21:50;;;;;;;6.50;1.37;;;;;;;;;;5014117;28;20215;-75
2021/05/08 13:24:54;;;;;;;1.83;1.43;;;;;;;;;;5000558;28;20190;-74
2021/05/08 13:27:58;;;;;;;2.50;1.50;;;;;;;;;;5014357;28;20196;-74
2021/05/08 13:31:02;;;;;;;1.60;1.10;;;;;;;;;;5000637;28;20227;-74
2021/05/08 13:34:07;;;;;;;1.03;0.80;;;;;;;;;;5001746;28;20182;-74
2021/05/08 13:37:11;;;;;;;2.20;1.20;;;;;;;;;;5013545;28;20189;-75
2021/05/08 13:40:17;;;;;;;1.73;0.97;;;;;;;;;;5013994;28;20179;-74
2021/05/08 13:43:21;;;;;;;1.53;0.97;;;;;;;;;;5014339;28;20185;-75
2021/05/08 13:46:25;;;;;;;1.10;0.90;;;;;;;;;;5013572;28;20185;-75
2021/05/08 13:49:29;;;;;;;1.67;1.00;;;;;;;;;;5012942;28;20209;-75
2021/05/08 13:52:34;;;;;;;3.03;1.00;;;;;;;;;;5001421;28;20210;-75
2021/05/08 13:55:38;;;;;;;1.57;1.10;;;;;;;;;;5013490;28;20198;-75
2021/05/08 13:58:42;;;;;;;2.10;1.20;;;;;;;;;;5013690;28;20181;-75
2021/05/08 14:01:47;;;;;;;2.23;1.00;;;;;;;;;;5001388;28;20700;-75
2021/05/08 14:04:51;;;;;;;1.00;0.80;;;;;;;;;;5001138;28;20186;-75
2021/05/08 14:07:55;;;;;;;1.77;1.30;;;;;;;;;;5013512;28;20196;-74
2021/05/08 14:11:01;;;;;;;1.30;0.90;;;;;;;;;;5013541;28;20225;-75
2021/05/08 14:14:05;;;;;;;1.83;1.07;;;;;;;;;;5012500;28;20186;-75
2021/05/08 14:17:09;;;;;;;9.00;1.30;;;;;;;;;;5013371;28;20181;-75
2021/05/08 14:20:14;;;;;;;1.43;0.93;;;;;;;;;;5001419;28;20648;-75
2021/05/08 14:23:18;;;;;;;2.60;1.10;;;;;;;;;;5001318;28;20197;-75
2021/05/08 14:26:22;;;;;;;2.17;1.13;;;;;;;;;;5013163;28;20192;-75
2021/05/08 14:29:27;;;;;;;2.77;1.10;;;;;;;;;;5013370;28;20187;-75
2021/05/08 14:32:31;;;;;;;1.70;1.60;;;;;;;;;;5001029;28;20224;-75
2021/05/08 14:35:35;;;;;;;3.03;1.10;;;;;;;;;;5013119;28;20537;-75
2021/05/08 14:38:40;;;;;;;3.67;1.00;;;;;;;;;;5017543;28;20185;-75
2021/05/08 14:41:44;;;;;;;1.43;0.87;;;;;;;;;;5005072;28;20551;-74
2021/05/08 14:44:49;;;;;;;1.47;1.30;;;;;;;;;;5005382;28;20180;-75
2021/05/08 14:47:55;;;;;;;1.30;1.00;;;;;;;;;;5013486;28;20202;-75
2021/05/08 14:50:58;;;;;;;1.00;0.80;;;;;;;;;;4986762;28;20687;-75
2021/05/08 14:54:03;;;;;;;13.43;1.67;;;;;;;;;;5001084;28;20198;-74
2021/05/08 14:57:07;;;;;;;3.23;1.03;;;;;;;;;;5019796;23;20225;-73
2021/05/08 15:00:12;;;;;;;15.87;1.83;;;;;;;;;;5017001;28;20182;-73
2021/05/08 15:03:16;;;;;;;4.30;1.37;;;;;;;;;;4986107;28;20193;-73
2021/05/08 15:06:20;;;;;;;1.53;1.00;;;;;;;;;;5007131;28;20656;-74
2021/05/08 15:09:27;;;;;;;4.53;1.20;;;;;;;;;;5004956;28;20178;-74
2021/05/08 15:12:32;;;;;;;2.47;1.00;;;;;;;;;;5000401;28;20222;-74
2021/05/08 15:15:36;;;;;;;3.17;1.00;;;;;;;;;;4997428;28;20202;-73
2021/05/08 15:18:41;;;;;;;2.27;1.07;;;;;;;;;;4993492;28;20189;-73
2021/05/08 15:21:45;;;;;;;1.10;0.87;;;;;;;;;;4994076;28;20217;-74
2021/05/08 15:24:49;;;;;;;1.57;1.10;;;;;;;;;;5014378;28;20528;-73
2021/05/08 15:27:54;;;;;;;2.57;1.13;;;;;;;;;;5004705;28;20244;-74
2021/05/08 15:30:58;;;;;;;2.60;1.00;;;;;;;;;;4996512;28;20573;-74
2021/05/08 15:34:03;;;;;;;2.57;0.77;;;;;;;;;;5012848;28;20653;-74
2021/05/08 15:37:07;;;;;;;2.97;0.90;;;;;;;;;;4997708;28;20525;-73
2021/05/08 15:40:12;;;;;;;4.27;0.90;;;;;;;;;;5015055;28;20190;-73
2021/05/08 15:43:16;;;;;;;2.07;1.20;;;;;;;;;;5015731;28;20640;-73
2021/05/08 15:46:20;;;;;;;7.27;1.60;;;;;;;;;;4996142;28;20186;-73
2021/05/08 15:49:24;;;;;;;1.37;1.07;;;;;;;;;;4997904;28;20186;-73
2021/05/08 15:52:30;;;;;;;0.67;0.60;;;;;;;;;;5015158;28;20225;-73
2021/05/08 15:55:34;;;;;;;1.80;0.73;;;;;;;;;;5003570;28;20185;-73
2021/05/08 15:58:38;;;;;;;1.43;0.70;;;;;;;;;;5013630;28;20205;-73
2021/05/08 16:01:43;;;;;;;1.27;0.93;;;;;;;;;;4984002;28;20604;-73
2021/05/08 16:04:47;;;;;;;2.73;0.57;;;;;;;;;;4984223;28;20526;-73
2021/05/08 16:07:51;;;;;;;1.33;0.90;;;;;;;;;;4995476;28;20530;-73
2021/05/08 16:10:55;;;;;;;2.70;0.80;;;;;;;;;;4998965;28;20230;-73
2021/05/08 16:13:59;;;;;;;2.60;0.80;;;;;;;;;;4995258;28;20190;-73
2021/05/08 16:17:05;;;;;;;1.47;0.80;;;;;;;;;;4985661;28;20206;-73
2021/05/08 16:20:09;;;;;;;1.57;0.80;;;;;;;;;;4987018;28;20186;-73
2021/05/08 16:23:14;;;;;;;0.93;0.70;;;;;;;;;;4995619;28;20583;-73
2021/05/08 16:26:18;;;;;;;2.07;0.63;;;;;;;;;;4995264;28;20178;-73
2021/05/08 16:29:22;;;;;;;0.90;0.60;;;;;;;;;;4996266;28;20202;-73
2021/05/08 16:32:27;;;;;;;1.77;0.90;;;;;;;;;;4994192;28;20226;-73
2021/05/08 16:35:31;;;;;;;0.77;0.70;;;;;;;;;;4972019;28;20193;-73
2021/05/08 16:38:35;;;;;;;3.53;0.90;;;;;;;;;;4984287;28;20197;-72
2021/05/08 16:41:42;;;;;;;3.73;1.70;;;;;;;;;;5000726;28;20218;-73
2021/05/08 16:44:46;;;;;;;0.93;0.83;;;;;;;;;;4983076;28;20194;-73
2021/05/08 16:47:50;;;;;;;1.97;0.97;;;;;;;;;;5000947;28;20197;-73
2021/05/08 16:50:55;;;;;;;1.77;0.97;;;;;;;;;;4998112;28;20225;-73
2021/05/08 16:54:03;;;;;;;1.47;0.77;;;;;;;;;;4982781;28;20190;-74
2021/05/08 16:57:07;;;;;;;0.60;0.60;;;;;;;;;;5008566;28;20221;-74
2021/05/08 17:00:16;;;;;;;13.53;1.60;;;;;;;;;;4994513;28;20182;-73
2021/05/08 17:03:21;;;;;;;0.97;0.70;;;;;;;;;;4994965;28;20189;-74
2021/05/08 17:06:24;;;;;;;1.00;0.67;;;;;;;;;;4982886;28;20182;-74
2021/05/08 17:09:28;;;;;;;1.43;0.73;;;;;;;;;;5000749;28;20193;-74
2021/05/08 17:12:33;;;;;;;1.50;0.60;;;;;;;;;;4994752;28;20210;-74
2021/05/08 17:15:37;;;;;;;5.77;1.10;;;;;;;;;;5004416;28;20538;-73
2021/05/08 17:18:42;;;;;;;2.83;0.80;;;;;;;;;;4994574;28;20194;-73
2021/05/08 17:21:45;;;;;;;1.57;1.00;;;;;;;;;;4995122;28;20225;-74
2021/05/08 17:24:50;;;;;;;3.73;1.10;;;;;;;;;;4990366;28;20193;-73
2021/05/08 17:27:54;;;;;;;2.83;1.20;;;;;;;;;;5014182;28;20513;-74
2021/05/08 17:30:59;;;;;;;2.37;1.40;;;;;;;;;;5009380;28;20229;-74
2021/05/08 17:34:03;;;;;;;1.67;1.20;;;;;;;;;;4982810;28;20178;-74
2021/05/08 17:37:07;;;;;;;1.53;1.20;;;;;;;;;;4986612;28;20193;-73
2021/05/08 17:40:11;;;;;;;1.80;1.20;;;;;;;;;;5013718;28;20525;-74
2021/05/08 17:43:16;;;;;;;1.83;1.10;;;;;;;;;;4995737;28;20174;-74
2021/05/08 17:46:20;;;;;;;2.00;1.70;;;;;;;;;;4993313;28;20197;-74
2021/05/08 17:49:28;;;;;;;2.80;1.10;;;;;;;;;;4994456;28;20190;-74
2021/05/08 17:52:33;;;;;;;1.53;1.20;;;;;;;;;;5010933;28;20229;-74
2021/05/08 17:55:37;;;;;;;1.80;1.40;;;;;;;;;;4997784;28;20213;-73
2021/05/08 17:58:41;;;;;;;1.80;1.03;;;;;;;;;;4984732;28;20617;-73
2021/05/08 18:01:46;;;;;;;2.13;1.50;;;;;;;;;;5009577;28;20220;-73
2021/05/08 18:04:53;;;;;;;2.30;1.30;;;;;;;;;;4997366;28;20201;-73
2021/05/08 18:07:57;;;;;;;2.27;1.30;;;;;;;;;;5007118;28;20197;-73
2021/05/08 18:11:02;;;;;;;1.97;1.23;;;;;;;;;;4992756;28;20224;-73
2021/05/08 18:14:06;;;;;;;1.70;1.20;;;;;;;;;;5013319;28;20189;-73
2021/05/08 18:17:10;;;;;;;3.20;1.50;;;;;;;;;;4984727;28;20201;-73
2021/05/08 18:20:14;;;;;;;3.17;1.23;;;;;;;;;;4985346;28;20197;-72
2021/05/08 18:23:19;;;;;;;1.90;1.43;;;;;;;;;;5003562;28;20181;-73
2021/05/08 18:26:24;;;;;;;2.10;1.33;;;;;;;;;;5016187;28;20201;-73
2021/05/08 18:29:28;;;;;;;2.20;1.20;;;;;;;;;;5006783;28;20202;-72
2021/05/08 18:32:34;;;;;;;4.00;1.20;;;;;;;;;;4996619;28;20226;-73
2021/05/08 18:35:39;;;;;;;2.53;1.20;;;;;;;;;;5002788;28;20552;-72
2021/05/08 18:38:43;;;;;;;2.23;1.30;;;;;;;;;;5001329;28;20198;-73
2021/05/08 18:41:48;;;;;;;1.60;1.43;;;;;;;;;;4984602;28;20222;-72
2021/05/08 18:44:52;;;;;;;2.13;1.40;;;;;;;;;;4989489;28;20189;-72